aviador You're here:

KOFP Decoded Metar

RICHMOND/HANOVER in VA, USA
Report Time2017-09-20 19:54:00
UTC Time2017-09-20 20:12:32
Flight Rules vfr VFR
WindVRB at 06 kt
Visibility9999 m
Phenomena:N/A
Clouds:N/A
Expected CloudBase > 5,600 ft AGL from Temp-Dew spread
CeilingNone
Temp31°C (ISA +16)
Dew Point17°C (43% RH)
Heat Index31.4°C
QNH1014 hPa
Density Alt2,303 ft
Elevation203 ft
Report Wrong Elevation
Raw Report
KOFP 201954Z AUTO VRB06KT 10SM CLR 31/17 A2994 RMK AO2 SLP135
T03110167=

Extra information for KOFP:More info

Metar Taf Metar & Taf Last 4 Metars F.Rules Stats Wind Profile Meteogram Temp Stats Airport Information Weather charts Add Link Nearby VenuesMetar ALERT Operation Metar Decoded Social comments

AIRNAV info for KOFP